createdAt,value
2022-12-05T00:02:23.372Z,0.53
2022-12-05T00:05:25.113Z,0.53
2022-12-05T00:11:46.135Z,0.59
2022-12-05T00:14:47.550Z,0.60
2022-12-05T00:17:49.082Z,0.60
2022-12-05T00:20:50.477Z,0.63
2022-12-05T00:23:51.968Z,0.62
2022-12-05T00:26:53.356Z,0.65
2022-12-05T00:29:54.884Z,0.69
2022-12-05T00:32:56.302Z,0.68
2022-12-05T00:36:09.838Z,0.69
2022-12-05T00:39:11.623Z,0.67
2022-12-05T00:42:13.193Z,0.68
2022-12-05T00:45:14.596Z,0.69
2022-12-05T00:48:15.942Z,0.69
2022-12-05T00:51:18.420Z,0.67
2022-12-05T00:54:19.795Z,0.67
2022-12-05T00:57:21.156Z,0.69
2022-12-05T01:00:22.542Z,0.70
2022-12-05T01:03:23.926Z,0.66
2022-12-05T01:06:25.453Z,0.59
2022-12-05T01:09:26.950Z,0.59
2022-12-05T01:12:28.800Z,0.64
2022-12-05T01:15:30.162Z,0.63
2022-12-05T01:18:31.524Z,0.66
2022-12-05T01:21:32.924Z,0.68
2022-12-05T01:24:34.264Z,0.67
2022-12-05T01:27:35.681Z,0.68
2022-12-05T01:30:37.745Z,0.70
2022-12-05T01:33:39.182Z,0.70
2022-12-05T01:36:40.717Z,0.66
2022-12-05T01:39:42.065Z,0.69
2022-12-05T01:42:43.744Z,0.69
2022-12-05T01:45:45.606Z,0.66
2022-12-05T01:48:47.112Z,0.68
2022-12-05T01:52:07.992Z,0.69
2022-12-05T01:55:11.230Z,0.70
2022-12-05T01:58:12.633Z,0.71
2022-12-05T02:01:14.089Z,0.69
2022-12-05T02:04:15.524Z,0.73
2022-12-05T02:07:16.873Z,0.71
2022-12-05T02:10:18.428Z,0.70
2022-12-05T02:13:29.069Z,0.72
2022-12-05T02:16:40.719Z,0.76
2022-12-05T02:19:51.402Z,0.76
2022-12-05T02:22:58.845Z,0.72
2022-12-05T02:26:06.245Z,0.66
2022-12-05T02:29:19.927Z,0.68
2022-12-05T02:32:40.005Z,0.68
2022-12-05T02:35:41.332Z,0.71
2022-12-05T02:38:42.630Z,0.72
2022-12-05T02:41:47.379Z,0.72
2022-12-05T02:44:56.601Z,0.69
2022-12-05T02:47:58.013Z,0.71
2022-12-05T02:50:59.886Z,0.73
2022-12-05T02:54:02.825Z,0.73
2022-12-05T02:57:04.201Z,0.71
2022-12-05T03:00:06.680Z,0.68
2022-12-05T03:03:12.530Z,0.70
2022-12-05T03:06:14.468Z,0.69
2022-12-05T03:09:20.540Z,0.68
2022-12-05T03:12:26.110Z,0.67
2022-12-05T03:15:31.922Z,0.64
2022-12-05T03:18:35.723Z,0.66
2022-12-05T03:21:57.349Z,0.67
2022-12-05T03:24:59.320Z,0.61
2022-12-05T03:28:03.128Z,0.63
2022-12-05T03:31:06.435Z,0.67
2022-12-05T03:34:08.360Z,0.62
2022-12-05T03:37:11.189Z,0.64
2022-12-05T03:40:31.486Z,0.61
2022-12-05T03:43:53.146Z,0.61
2022-12-05T03:47:11.542Z,0.58
2022-12-05T03:50:39.231Z,0.61
2022-12-05T03:53:56.612Z,0.60
2022-12-05T03:57:36.656Z,0.63
2022-12-05T04:00:39.944Z,0.62
2022-12-05T04:03:45.341Z,0.60
2022-12-05T04:06:47.167Z,0.60
2022-12-05T04:09:58.773Z,0.59
2022-12-05T04:13:17.626Z,0.59
2022-12-05T04:16:48.302Z,0.62
2022-12-05T04:20:17.690Z,0.62
2022-12-05T04:23:19.034Z,0.61
2022-12-05T04:26:21.608Z,0.64
2022-12-05T04:29:25.929Z,0.63
2022-12-05T04:32:27.727Z,0.63
2022-12-05T04:35:32.097Z,0.60
2022-12-05T04:38:46.550Z,0.62
2022-12-05T04:42:08.196Z,0.64
2022-12-05T04:45:10.257Z,0.57
2022-12-05T04:48:12.151Z,0.58
2022-12-05T04:51:15.121Z,0.60
2022-12-05T04:54:24.002Z,0.62
2022-12-05T04:57:29.869Z,0.65
2022-12-05T05:00:31.295Z,0.67
2022-12-05T05:03:52.889Z,0.69
2022-12-05T05:06:54.316Z,0.69
2022-12-05T05:09:56.078Z,0.70
2022-12-05T05:12:57.596Z,0.69
2022-12-05T05:15:59.024Z,0.67
2022-12-05T05:19:00.393Z,0.67
2022-12-05T05:22:01.796Z,0.64
2022-12-05T05:25:03.206Z,0.67
2022-12-05T05:28:04.661Z,0.70
2022-12-05T05:31:06.222Z,0.67
2022-12-05T05:34:09.930Z,0.64
2022-12-05T05:37:11.493Z,0.68
2022-12-05T05:40:13.059Z,0.63
2022-12-05T05:43:14.415Z,0.64
2022-12-05T05:46:16.381Z,0.60
2022-12-05T05:49:17.757Z,0.63
2022-12-05T05:52:19.092Z,0.63
2022-12-05T05:55:20.462Z,0.62
2022-12-05T05:58:21.823Z,0.60
2022-12-05T06:01:23.307Z,0.62
2022-12-05T06:04:24.717Z,0.62
2022-12-05T06:07:26.165Z,0.67
2022-12-05T06:10:27.652Z,0.66
2022-12-05T06:13:29.076Z,0.66
2022-12-05T06:16:30.754Z,0.69
2022-12-05T06:19:32.236Z,0.72
2022-12-05T06:22:33.604Z,0.68
2022-12-05T06:25:35.227Z,0.76
2022-12-05T06:28:37.774Z,0.79
2022-12-05T06:31:39.324Z,0.83
2022-12-05T06:34:40.896Z,0.88
2022-12-05T06:37:45.467Z,0.93
2022-12-05T06:40:46.919Z,0.91
2022-12-05T06:43:48.360Z,0.90
2022-12-05T06:46:49.841Z,0.93
2022-12-05T06:49:51.247Z,0.93
2022-12-05T06:52:52.591Z,0.92
2022-12-05T06:56:00.642Z,0.94
2022-12-05T06:59:02.090Z,0.96
2022-12-05T07:02:03.637Z,0.97
2022-12-05T07:05:05.282Z,0.99
2022-12-05T07:08:06.749Z,1.09
2022-12-05T07:11:08.367Z,1.26
2022-12-05T07:14:19.193Z,1.33
2022-12-05T07:17:26.296Z,1.44
2022-12-05T07:20:43.142Z,1.52
2022-12-05T07:23:50.327Z,1.69
2022-12-05T07:26:51.963Z,1.88
2022-12-05T07:29:53.436Z,1.96
2022-12-05T07:32:54.826Z,1.93
2022-12-05T07:36:02.837Z,1.99
2022-12-05T07:39:04.273Z,1.95
2022-12-05T07:42:05.821Z,2.02
2022-12-05T07:45:07.656Z,2.17
2022-12-05T07:48:09.123Z,2.22
2022-12-05T07:51:10.961Z,2.30
2022-12-05T07:54:12.452Z,2.31
2022-12-05T07:57:13.818Z,2.37
2022-12-05T08:00:15.471Z,2.42
2022-12-05T08:03:16.839Z,2.39
2022-12-05T08:06:19.163Z,2.41
2022-12-05T08:09:20.907Z,2.45
2022-12-05T08:12:22.298Z,2.50
2022-12-05T08:15:23.723Z,2.54
2022-12-05T08:18:27.459Z,2.54
2022-12-05T08:21:29.347Z,2.47
2022-12-05T08:24:30.783Z,2.38
2022-12-05T08:27:32.122Z,2.38
2022-12-05T08:30:33.684Z,2.36
2022-12-05T08:33:35.118Z,2.40
2022-12-05T08:36:36.511Z,2.46
2022-12-05T08:39:38.937Z,2.47
2022-12-05T08:42:40.423Z,2.48
2022-12-05T08:45:41.868Z,2.49
2022-12-05T08:48:43.327Z,2.56
2022-12-05T08:51:44.769Z,2.57
2022-12-05T08:54:46.172Z,2.59
2022-12-05T08:57:47.531Z,2.60
2022-12-05T09:00:48.906Z,2.66
2022-12-05T09:03:50.359Z,2.68
2022-12-05T09:06:51.840Z,2.70
2022-12-05T09:09:53.234Z,2.73
2022-12-05T09:12:54.637Z,2.81
2022-12-05T09:15:56.176Z,2.87
2022-12-05T09:18:57.703Z,2.96
2022-12-05T09:21:59.123Z,3.01
2022-12-05T09:25:03.628Z,3.00
2022-12-05T09:28:05.054Z,3.03
2022-12-05T09:31:13.732Z,3.07
2022-12-05T09:34:15.483Z,3.08
2022-12-05T09:37:37.966Z,3.09
2022-12-05T09:40:43.119Z,3.16
2022-12-05T09:44:10.922Z,3.19
2022-12-05T09:47:17.970Z,3.21
2022-12-05T09:50:28.571Z,3.25
2022-12-05T09:53:33.667Z,3.42
2022-12-05T09:56:35.048Z,3.47
2022-12-05T09:59:36.447Z,3.46
2022-12-05T10:02:46.177Z,3.48
2022-12-05T10:05:49.118Z,3.46
2022-12-05T10:09:10.120Z,3.49
2022-12-05T10:12:15.623Z,3.56
2022-12-05T10:15:20.152Z,3.62
2022-12-05T10:18:21.449Z,3.73
2022-12-05T10:21:22.930Z,3.82
2022-12-05T10:24:28.633Z,4.09
2022-12-05T10:27:40.242Z,4.51
2022-12-05T10:30:42.092Z,4.65
2022-12-05T10:33:44.914Z,4.61
2022-12-05T10:36:57.046Z,4.66
2022-12-05T10:39:58.441Z,4.75
2022-12-05T10:42:59.821Z,4.62
2022-12-05T10:46:01.336Z,4.66
2022-12-05T10:49:02.805Z,4.73
2022-12-05T10:52:04.377Z,4.78
2022-12-05T10:55:06.518Z,4.76
2022-12-05T10:58:18.120Z,4.79
2022-12-05T11:01:19.551Z,4.60
2022-12-05T11:04:24.718Z,4.36
2022-12-05T11:07:29.188Z,4.49
2022-12-05T11:10:32.214Z,4.49
2022-12-05T11:13:33.670Z,4.44
2022-12-05T11:16:36.278Z,4.48
2022-12-05T11:19:37.915Z,4.40
2022-12-05T11:22:40.588Z,4.40
2022-12-05T11:25:44.599Z,4.36
2022-12-05T11:28:45.975Z,4.34
2022-12-05T11:31:50.853Z,4.34
2022-12-05T11:34:53.853Z,4.38
2022-12-05T11:38:04.637Z,4.48
2022-12-05T11:41:18.762Z,4.57
2022-12-05T11:44:42.821Z,4.56
2022-12-05T11:48:02.992Z,4.58
2022-12-05T11:51:23.501Z,4.41
2022-12-05T11:55:04.534Z,4.40
2022-12-05T11:58:10.233Z,4.36
2022-12-05T12:01:18.453Z,4.32
2022-12-05T12:04:25.839Z,4.20
2022-12-05T12:07:33.386Z,4.11
2022-12-05T12:10:56.936Z,4.19
2022-12-05T12:14:03.836Z,4.25
2022-12-05T12:17:24.141Z,4.20
2022-12-05T12:20:35.137Z,4.17
2022-12-05T12:23:42.880Z,4.09
2022-12-05T12:27:02.812Z,4.16
2022-12-05T12:30:06.769Z,4.14
2022-12-05T12:33:08.107Z,4.14
2022-12-05T12:36:17.232Z,4.10
2022-12-05T12:39:31.280Z,4.03
2022-12-05T12:42:32.608Z,4.03
2022-12-05T12:45:40.755Z,3.94
2022-12-05T12:49:00.872Z,4.00
2022-12-05T12:52:03.034Z,3.99
2022-12-05T12:55:24.674Z,4.05
2022-12-05T12:58:45.218Z,4.06
2022-12-05T13:01:48.230Z,4.04
2022-12-05T13:04:50.573Z,4.04
2022-12-05T13:07:53.843Z,4.10
2022-12-05T13:10:55.301Z,4.23
2022-12-05T13:13:57.129Z,4.14
2022-12-05T13:16:58.641Z,4.18
2022-12-05T13:20:00.352Z,4.12
2022-12-05T13:23:06.249Z,4.03
2022-12-05T13:26:10.491Z,4.00
2022-12-05T13:29:14.903Z,3.94
2022-12-05T13:32:32.747Z,3.92
2022-12-05T13:35:56.293Z,3.85
2022-12-05T13:39:23.556Z,3.88
2022-12-05T13:42:27.858Z,3.84
2022-12-05T13:45:29.310Z,3.79
2022-12-05T13:48:31.127Z,3.68
2022-12-05T13:51:34.047Z,3.68
2022-12-05T13:54:35.431Z,3.69
2022-12-05T13:57:39.860Z,3.70
2022-12-05T14:00:41.254Z,3.70
2022-12-05T14:03:54.438Z,3.72
2022-12-05T14:06:56.351Z,3.71
2022-12-05T14:09:57.952Z,3.69
2022-12-05T14:13:00.446Z,3.67
2022-12-05T14:16:31.584Z,3.67
2022-12-05T14:19:38.143Z,3.64
2022-12-05T14:22:55.120Z,3.64
2022-12-05T14:26:08.577Z,3.63
2022-12-05T14:29:16.474Z,3.61
2022-12-05T14:32:25.482Z,3.61
2022-12-05T14:35:46.362Z,3.56
2022-12-05T14:38:47.741Z,3.50
2022-12-05T14:41:55.436Z,3.48
2022-12-05T14:44:58.044Z,3.46
2022-12-05T14:48:00.188Z,3.50
2022-12-05T14:51:01.650Z,3.52
2022-12-05T14:54:04.720Z,3.50
2022-12-05T14:57:11.366Z,3.46
2022-12-05T15:00:17.688Z,3.44
2022-12-05T15:03:21.301Z,3.42
2022-12-05T15:06:25.868Z,3.42
2022-12-05T15:09:38.059Z,3.39
2022-12-05T15:12:49.879Z,3.39
2022-12-05T15:16:00.559Z,3.34
2022-12-05T15:19:04.001Z,3.26
2022-12-05T15:22:06.477Z,3.29
2022-12-05T15:25:34.236Z,3.25
2022-12-05T15:28:35.597Z,3.26
2022-12-05T15:31:44.443Z,3.24
2022-12-05T15:34:45.833Z,3.22
2022-12-05T15:37:47.147Z,3.21
2022-12-05T15:40:48.592Z,3.16
2022-12-05T15:43:56.531Z,3.12
2022-12-05T15:46:57.954Z,3.10
2022-12-05T15:49:59.507Z,3.08
2022-12-05T15:53:10.314Z,3.05
2022-12-05T15:56:11.733Z,3.01
2022-12-05T15:59:14.994Z,2.98
2022-12-05T16:02:17.240Z,2.94
2022-12-05T16:05:41.922Z,2.88
2022-12-05T16:08:44.083Z,2.84
2022-12-05T16:11:52.635Z,2.85
2022-12-05T16:15:00.324Z,2.81
2022-12-05T16:18:02.743Z,2.84
2022-12-05T16:21:04.211Z,2.81
2022-12-05T16:24:15.748Z,2.71
2022-12-05T16:27:17.919Z,2.74
2022-12-05T16:30:20.407Z,2.74
2022-12-05T16:33:21.750Z,2.71
2022-12-05T16:36:23.163Z,2.67
2022-12-05T16:39:28.261Z,2.64
2022-12-05T16:42:29.792Z,2.61
2022-12-05T16:45:38.472Z,2.59
2022-12-05T16:48:40.289Z,2.56
2022-12-05T16:51:42.306Z,2.54
2022-12-05T16:54:45.982Z,2.51
2022-12-05T16:57:47.359Z,2.47
2022-12-05T17:00:49.208Z,2.45
2022-12-05T17:03:50.932Z,2.43
2022-12-05T17:06:52.340Z,2.42
2022-12-05T17:09:53.778Z,2.37
2022-12-05T17:12:55.128Z,2.34
2022-12-05T17:15:56.624Z,2.31
2022-12-05T17:18:58.052Z,2.31
2022-12-05T17:21:59.478Z,2.32
2022-12-05T17:25:01.194Z,2.28
2022-12-05T17:28:02.708Z,2.30
2022-12-05T17:31:04.278Z,2.31
2022-12-05T17:34:10.518Z,2.29
2022-12-05T17:37:11.868Z,2.25
2022-12-05T17:40:13.671Z,2.24
2022-12-05T17:43:19.940Z,2.24
2022-12-05T17:46:24.751Z,2.27
2022-12-05T17:49:26.457Z,2.29
2022-12-05T17:52:28.301Z,2.28
2022-12-05T17:55:29.767Z,2.24
2022-12-05T17:58:31.177Z,2.22
2022-12-05T18:01:32.694Z,2.22
2022-12-05T18:04:34.246Z,2.23
2022-12-05T18:07:35.874Z,2.22
2022-12-05T18:10:41.831Z,2.22
2022-12-05T18:13:43.209Z,2.24
2022-12-05T18:16:44.705Z,2.24
2022-12-05T18:19:46.106Z,2.23
2022-12-05T18:22:48.693Z,2.22
2022-12-05T18:25:59.834Z,2.26
2022-12-05T18:29:01.214Z,2.23
2022-12-05T18:32:02.762Z,2.26
2022-12-05T18:35:11.310Z,2.31
2022-12-05T18:38:14.198Z,2.37
2022-12-05T18:41:15.562Z,2.35
2022-12-05T18:44:16.899Z,2.33
2022-12-05T18:47:18.450Z,2.34
2022-12-05T18:50:19.814Z,2.34
2022-12-05T18:53:21.187Z,2.32
2022-12-05T18:56:26.992Z,2.29
2022-12-05T18:59:30.571Z,2.28
2022-12-05T19:02:32.026Z,2.27
2022-12-05T19:05:34.539Z,2.28
2022-12-05T19:08:35.929Z,2.26
2022-12-05T19:11:37.399Z,2.30
2022-12-05T19:14:38.749Z,2.29
2022-12-05T19:17:40.139Z,2.19
2022-12-05T19:20:48.562Z,2.18
2022-12-05T19:23:49.985Z,2.18
2022-12-05T19:26:51.461Z,2.16
2022-12-05T19:29:52.845Z,2.16
2022-12-05T19:32:54.183Z,2.18
2022-12-05T19:35:55.634Z,2.18
2022-12-05T19:38:57.174Z,2.16
2022-12-05T19:41:59.411Z,2.17
2022-12-05T19:45:06.160Z,2.17
2022-12-05T19:48:09.640Z,2.17
2022-12-05T19:51:11.120Z,2.20
2022-12-05T19:54:12.975Z,2.20
2022-12-05T19:57:14.344Z,2.19
2022-12-05T20:00:18.926Z,2.19
2022-12-05T20:03:20.363Z,2.20
2022-12-05T20:06:21.897Z,2.20
2022-12-05T20:09:23.313Z,2.20
2022-12-05T20:12:24.679Z,2.19
2022-12-05T20:15:26.047Z,2.19
2022-12-05T20:18:27.435Z,2.19
2022-12-05T20:21:29.898Z,2.17
2022-12-05T20:24:31.333Z,2.16
2022-12-05T20:27:34.102Z,2.18
2022-12-05T20:30:35.621Z,2.21
2022-12-05T20:33:37.136Z,2.20
2022-12-05T20:36:38.578Z,2.20
2022-12-05T20:39:39.956Z,2.17
2022-12-05T20:42:46.424Z,2.18
2022-12-05T20:45:48.319Z,2.17
2022-12-05T20:48:50.279Z,2.18
2022-12-05T20:51:51.717Z,2.20
2022-12-05T20:54:53.096Z,2.20
2022-12-05T20:57:54.509Z,2.19
2022-12-05T21:00:59.638Z,2.17
2022-12-05T21:04:01.212Z,2.16
2022-12-05T21:07:02.600Z,2.17
2022-12-05T21:10:08.115Z,2.19
2022-12-05T21:13:09.953Z,2.21
2022-12-05T21:16:12.258Z,2.23
2022-12-05T21:19:13.723Z,2.19
2022-12-05T21:22:15.115Z,2.16
2022-12-05T21:25:16.524Z,2.17
2022-12-05T21:28:17.895Z,2.17
2022-12-05T21:31:20.371Z,2.16
2022-12-05T21:34:21.832Z,2.16
2022-12-05T21:37:23.220Z,2.12
2022-12-05T21:40:24.621Z,2.10
2022-12-05T21:43:25.993Z,2.09
2022-12-05T21:46:27.546Z,2.11
2022-12-05T21:49:28.959Z,2.10
2022-12-05T21:52:30.354Z,2.09
2022-12-05T21:55:31.714Z,2.08
2022-12-05T21:58:35.051Z,2.06
2022-12-05T22:01:38.326Z,2.04
2022-12-05T22:04:39.782Z,2.02
2022-12-05T22:07:41.195Z,2.02
2022-12-05T22:10:42.609Z,2.01
2022-12-05T22:13:44.557Z,2.01
2022-12-05T22:16:46.143Z,1.98
2022-12-05T22:19:47.565Z,1.97
2022-12-05T22:22:48.959Z,1.99
2022-12-05T22:26:01.755Z,1.97
2022-12-05T22:29:03.211Z,1.95
2022-12-05T22:32:04.622Z,1.94
2022-12-05T22:35:06.070Z,1.91
2022-12-05T22:38:07.461Z,1.88
2022-12-05T22:41:09.905Z,1.87
2022-12-05T22:44:11.271Z,1.91
2022-12-05T22:47:12.652Z,1.91
2022-12-05T22:50:14.116Z,1.92
2022-12-05T22:53:16.076Z,1.92
2022-12-05T22:56:17.688Z,1.92
2022-12-05T22:59:19.053Z,1.92
2022-12-05T23:02:20.609Z,1.93
2022-12-05T23:05:22.226Z,1.90
2022-12-05T23:08:23.570Z,1.84
2022-12-05T23:11:25.125Z,1.85
2022-12-05T23:14:26.573Z,1.86
2022-12-05T23:17:27.987Z,1.83
2022-12-05T23:20:29.435Z,1.75
2022-12-05T23:23:30.818Z,1.74
2022-12-05T23:26:33.801Z,1.79
2022-12-05T23:29:35.407Z,1.76
2022-12-05T23:32:37.161Z,1.75
2022-12-05T23:35:38.577Z,1.78
2022-12-05T23:38:40.432Z,1.75
2022-12-05T23:41:41.950Z,1.73
2022-12-05T23:44:43.617Z,1.74
2022-12-05T23:47:44.994Z,1.74
2022-12-05T23:50:55.989Z,1.76
2022-12-05T23:53:58.258Z,1.75
2022-12-05T23:56:59.648Z,1.74
